sensor_id;sensor_type;location;lat;lon;timestamp;P1;durP1;ratioP1;P2;durP2;ratioP2
50549;SDS011;36505;52.512;13.460;2023-10-08T00:02:03;9.15;;;5.13;;
50549;SDS011;36505;52.512;13.460;2023-10-08T00:04:28;11.32;;;4.75;;
50549;SDS011;36505;52.512;13.460;2023-10-08T00:06:54;9.68;;;3.10;;
50549;SDS011;36505;52.512;13.460;2023-10-08T00:09:20;8.60;;;3.05;;
50549;SDS011;36505;52.512;13.460;2023-10-08T00:11:46;9.25;;;3.00;;
50549;SDS011;36505;52.512;13.460;2023-10-08T00:14:17;7.53;;;2.50;;
50549;SDS011;36505;52.512;13.460;2023-10-08T00:16:46;6.28;;;2.13;;
50549;SDS011;36505;52.512;13.460;2023-10-08T00:19:15;7.03;;;1.92;;
50549;SDS011;36505;52.512;13.460;2023-10-08T00:21:42;5.53;;;2.08;;
50549;SDS011;36505;52.512;13.460;2023-10-08T00:24:10;7.53;;;2.10;;
50549;SDS011;36505;52.512;13.460;2023-10-08T00:26:35;9.35;;;3.10;;
50549;SDS011;36505;52.512;13.460;2023-10-08T00:29:06;5.43;;;2.20;;
50549;SDS011;36505;52.512;13.460;2023-10-08T00:31:42;8.60;;;2.47;;
50549;SDS011;36505;52.512;13.460;2023-10-08T00:34:10;7.25;;;1.88;;
50549;SDS011;36505;52.512;13.460;2023-10-08T00:36:42;8.35;;;2.22;;
50549;SDS011;36505;52.512;13.460;2023-10-08T00:39:11;12.63;;;2.50;;
50549;SDS011;36505;52.512;13.460;2023-10-08T00:41:47;6.43;;;2.05;;
50549;SDS011;36505;52.512;13.460;2023-10-08T00:44:14;7.60;;;1.70;;
50549;SDS011;36505;52.512;13.460;2023-10-08T00:46:54;13.38;;;2.30;;
50549;SDS011;36505;52.512;13.460;2023-10-08T00:49:27;8.32;;;1.83;;
50549;SDS011;36505;52.512;13.460;2023-10-08T00:52:09;8.45;;;2.55;;
50549;SDS011;36505;52.512;13.460;2023-10-08T00:54:35;7.68;;;2.35;;
50549;SDS011;36505;52.512;13.460;2023-10-08T00:57:28;12.05;;;2.78;;
50549;SDS011;36505;52.512;13.460;2023-10-08T00:59:55;8.02;;;2.10;;
50549;SDS011;36505;52.512;13.460;2023-10-08T01:02:25;9.13;;;2.35;;
50549;SDS011;36505;52.512;13.460;2023-10-08T01:04:54;7.05;;;1.90;;
50549;SDS011;36505;52.512;13.460;2023-10-08T01:07:23;5.43;;;1.45;;
50549;SDS011;36505;52.512;13.460;2023-10-08T01:09:50;6.07;;;1.77;;
50549;SDS011;36505;52.512;13.460;2023-10-08T01:14:51;6.40;;;1.98;;
50549;SDS011;36505;52.512;13.460;2023-10-08T01:17:19;5.93;;;2.13;;
50549;SDS011;36505;52.512;13.460;2023-10-08T01:19:49;4.00;;;1.67;;
50549;SDS011;36505;52.512;13.460;2023-10-08T01:22:35;5.43;;;1.58;;
50549;SDS011;36505;52.512;13.460;2023-10-08T01:25:04;5.65;;;1.63;;
50549;SDS011;36505;52.512;13.460;2023-10-08T01:27:30;6.25;;;1.63;;
50549;SDS011;36505;52.512;13.460;2023-10-08T01:29:59;9.93;;;2.15;;
50549;SDS011;36505;52.512;13.460;2023-10-08T01:32:43;7.25;;;1.55;;
50549;SDS011;36505;52.512;13.460;2023-10-08T01:35:09;5.85;;;1.73;;
50549;SDS011;36505;52.512;13.460;2023-10-08T01:37:47;4.10;;;1.55;;
50549;SDS011;36505;52.512;13.460;2023-10-08T01:40:15;4.05;;;1.80;;
50549;SDS011;36505;52.512;13.460;2023-10-08T01:42:42;6.80;;;1.90;;
50549;SDS011;36505;52.512;13.460;2023-10-08T01:45:08;6.55;;;1.95;;
50549;SDS011;36505;52.512;13.460;2023-10-08T01:47:35;10.27;;;2.88;;
50549;SDS011;36505;52.512;13.460;2023-10-08T01:50:01;7.43;;;2.15;;
50549;SDS011;36505;52.512;13.460;2023-10-08T01:54:59;6.80;;;1.80;;
50549;SDS011;36505;52.512;13.460;2023-10-08T01:57:25;12.93;;;3.22;;
50549;SDS011;36505;52.512;13.460;2023-10-08T01:59:50;14.13;;;1.95;;
50549;SDS011;36505;52.512;13.460;2023-10-08T02:02:15;5.63;;;1.95;;
50549;SDS011;36505;52.512;13.460;2023-10-08T02:04:41;7.32;;;1.88;;
50549;SDS011;36505;52.512;13.460;2023-10-08T02:07:07;5.63;;;1.92;;
50549;SDS011;36505;52.512;13.460;2023-10-08T02:09:39;6.40;;;1.77;;
50549;SDS011;36505;52.512;13.460;2023-10-08T02:12:05;6.43;;;1.83;;
50549;SDS011;36505;52.512;13.460;2023-10-08T02:14:31;8.18;;;1.95;;
50549;SDS011;36505;52.512;13.460;2023-10-08T02:17:00;9.13;;;2.45;;
50549;SDS011;36505;52.512;13.460;2023-10-08T02:19:31;10.80;;;3.72;;
50549;SDS011;36505;52.512;13.460;2023-10-08T02:21:57;12.88;;;2.85;;
50549;SDS011;36505;52.512;13.460;2023-10-08T02:24:23;12.13;;;2.10;;
50549;SDS011;36505;52.512;13.460;2023-10-08T02:26:58;5.78;;;1.90;;
50549;SDS011;36505;52.512;13.460;2023-10-08T02:29:28;7.32;;;2.25;;
50549;SDS011;36505;52.512;13.460;2023-10-08T02:31:56;6.45;;;1.92;;
50549;SDS011;36505;52.512;13.460;2023-10-08T02:34:22;5.30;;;2.13;;
50549;SDS011;36505;52.512;13.460;2023-10-08T02:36:47;9.30;;;2.20;;
50549;SDS011;36505;52.512;13.460;2023-10-08T02:39:13;11.93;;;2.92;;
50549;SDS011;36505;52.512;13.460;2023-10-08T02:41:47;12.80;;;2.58;;
50549;SDS011;36505;52.512;13.460;2023-10-08T02:44:13;11.38;;;2.78;;
50549;SDS011;36505;52.512;13.460;2023-10-08T02:46:43;6.63;;;2.42;;
50549;SDS011;36505;52.512;13.460;2023-10-08T02:49:12;7.70;;;2.67;;
50549;SDS011;36505;52.512;13.460;2023-10-08T02:51:42;9.27;;;2.90;;
50549;SDS011;36505;52.512;13.460;2023-10-08T02:54:09;7.97;;;2.50;;
50549;SDS011;36505;52.512;13.460;2023-10-08T02:56:47;8.43;;;2.50;;
50549;SDS011;36505;52.512;13.460;2023-10-08T02:59:22;11.35;;;2.30;;
50549;SDS011;36505;52.512;13.460;2023-10-08T03:01:48;12.07;;;3.78;;
50549;SDS011;36505;52.512;13.460;2023-10-08T03:04:15;14.68;;;2.50;;
50549;SDS011;36505;52.512;13.460;2023-10-08T03:06:47;6.35;;;2.30;;
50549;SDS011;36505;52.512;13.460;2023-10-08T03:09:19;10.95;;;2.50;;
50549;SDS011;36505;52.512;13.460;2023-10-08T03:11:50;13.27;;;2.50;;
50549;SDS011;36505;52.512;13.460;2023-10-08T03:14:17;11.68;;;2.65;;
50549;SDS011;36505;52.512;13.460;2023-10-08T03:16:49;6.85;;;3.45;;
50549;SDS011;36505;52.512;13.460;2023-10-08T03:19:19;13.90;;;2.70;;
50549;SDS011;36505;52.512;13.460;2023-10-08T03:21:47;15.20;;;2.72;;
50549;SDS011;36505;52.512;13.460;2023-10-08T03:24:19;8.23;;;2.67;;
50549;SDS011;36505;52.512;13.460;2023-10-08T03:27:00;9.20;;;2.53;;
50549;SDS011;36505;52.512;13.460;2023-10-08T03:32:13;11.18;;;2.47;;
50549;SDS011;36505;52.512;13.460;2023-10-08T03:34:46;7.70;;;2.85;;
50549;SDS011;36505;52.512;13.460;2023-10-08T03:37:13;9.23;;;2.65;;
50549;SDS011;36505;52.512;13.460;2023-10-08T03:42:23;9.57;;;2.60;;
50549;SDS011;36505;52.512;13.460;2023-10-08T03:44:51;8.52;;;2.58;;
50549;SDS011;36505;52.512;13.460;2023-10-08T03:47:21;10.70;;;2.83;;
50549;SDS011;36505;52.512;13.460;2023-10-08T03:49:51;8.38;;;2.58;;
50549;SDS011;36505;52.512;13.460;2023-10-08T03:52:20;7.75;;;1.88;;
50549;SDS011;36505;52.512;13.460;2023-10-08T03:54:48;7.38;;;2.30;;
50549;SDS011;36505;52.512;13.460;2023-10-08T03:57:24;8.00;;;2.78;;
50549;SDS011;36505;52.512;13.460;2023-10-08T04:00:07;10.05;;;2.60;;
50549;SDS011;36505;52.512;13.460;2023-10-08T04:02:46;16.40;;;3.55;;
50549;SDS011;36505;52.512;13.460;2023-10-08T04:05:20;9.00;;;2.10;;
50549;SDS011;36505;52.512;13.460;2023-10-08T04:08:05;8.80;;;3.10;;
50549;SDS011;36505;52.512;13.460;2023-10-08T04:10:42;9.70;;;2.35;;
50549;SDS011;36505;52.512;13.460;2023-10-08T04:13:08;8.82;;;2.20;;
50549;SDS011;36505;52.512;13.460;2023-10-08T04:15:37;9.70;;;2.67;;
50549;SDS011;36505;52.512;13.460;2023-10-08T04:18:06;4.68;;;2.30;;
50549;SDS011;36505;52.512;13.460;2023-10-08T04:20:35;11.95;;;3.33;;
50549;SDS011;36505;52.512;13.460;2023-10-08T04:23:04;11.32;;;2.75;;
50549;SDS011;36505;52.512;13.460;2023-10-08T04:25:30;8.15;;;2.40;;
50549;SDS011;36505;52.512;13.460;2023-10-08T04:27:57;9.20;;;2.03;;
50549;SDS011;36505;52.512;13.460;2023-10-08T04:30:28;14.48;;;2.75;;
50549;SDS011;36505;52.512;13.460;2023-10-08T04:33:01;7.43;;;2.28;;
50549;SDS011;36505;52.512;13.460;2023-10-08T04:35:38;8.27;;;2.13;;
50549;SDS011;36505;52.512;13.460;2023-10-08T04:38:14;15.02;;;3.10;;
50549;SDS011;36505;52.512;13.460;2023-10-08T04:40:43;12.25;;;2.92;;
50549;SDS011;36505;52.512;13.460;2023-10-08T04:45:52;13.45;;;2.60;;
50549;SDS011;36505;52.512;13.460;2023-10-08T04:48:18;16.10;;;3.55;;
50549;SDS011;36505;52.512;13.460;2023-10-08T04:50:46;13.25;;;3.05;;
50549;SDS011;36505;52.512;13.460;2023-10-08T04:53:16;8.05;;;2.85;;
50549;SDS011;36505;52.512;13.460;2023-10-08T04:55:42;9.88;;;2.90;;
50549;SDS011;36505;52.512;13.460;2023-10-08T04:58:13;12.50;;;3.22;;
50549;SDS011;36505;52.512;13.460;2023-10-08T05:00:46;10.20;;;3.72;;
50549;SDS011;36505;52.512;13.460;2023-10-08T05:03:24;10.10;;;2.30;;
50549;SDS011;36505;52.512;13.460;2023-10-08T05:08:34;8.90;;;2.53;;
50549;SDS011;36505;52.512;13.460;2023-10-08T05:11:18;11.15;;;2.42;;
50549;SDS011;36505;52.512;13.460;2023-10-08T05:13:50;7.32;;;2.10;;
50549;SDS011;36505;52.512;13.460;2023-10-08T05:16:27;12.57;;;3.03;;
50549;SDS011;36505;52.512;13.460;2023-10-08T05:19:08;11.73;;;3.00;;
50549;SDS011;36505;52.512;13.460;2023-10-08T05:21:52;9.82;;;2.08;;
50549;SDS011;36505;52.512;13.460;2023-10-08T05:24:30;11.93;;;3.53;;
50549;SDS011;36505;52.512;13.460;2023-10-08T05:27:03;10.05;;;2.88;;
50549;SDS011;36505;52.512;13.460;2023-10-08T05:29:48;11.60;;;2.90;;
50549;SDS011;36505;52.512;13.460;2023-10-08T05:32:31;8.07;;;2.58;;
50549;SDS011;36505;52.512;13.460;2023-10-08T05:35:09;11.30;;;2.75;;
50549;SDS011;36505;52.512;13.460;2023-10-08T05:37:53;6.68;;;2.60;;
50549;SDS011;36505;52.512;13.460;2023-10-08T05:40:37;7.88;;;2.58;;
50549;SDS011;36505;52.512;13.460;2023-10-08T05:43:23;11.55;;;2.55;;
50549;SDS011;36505;52.512;13.460;2023-10-08T05:46:02;9.02;;;2.67;;
50549;SDS011;36505;52.512;13.460;2023-10-08T05:51:38;13.38;;;2.47;;
50549;SDS011;36505;52.512;13.460;2023-10-08T05:54:15;9.48;;;3.75;;
50549;SDS011;36505;52.512;13.460;2023-10-08T05:56:57;10.02;;;3.47;;
50549;SDS011;36505;52.512;13.460;2023-10-08T06:02:21;14.10;;;3.63;;
50549;SDS011;36505;52.512;13.460;2023-10-08T06:04:57;8.52;;;2.92;;
50549;SDS011;36505;52.512;13.460;2023-10-08T06:10:15;20.45;;;7.07;;
50549;SDS011;36505;52.512;13.460;2023-10-08T06:16:05;7.20;;;2.70;;
50549;SDS011;36505;52.512;13.460;2023-10-08T06:18:33;9.48;;;3.00;;
50549;SDS011;36505;52.512;13.460;2023-10-08T06:21:02;11.40;;;2.78;;
50549;SDS011;36505;52.512;13.460;2023-10-08T06:23:37;9.63;;;3.25;;
50549;SDS011;36505;52.512;13.460;2023-10-08T06:26:07;7.40;;;2.47;;
50549;SDS011;36505;52.512;13.460;2023-10-08T06:28:36;10.15;;;2.08;;
50549;SDS011;36505;52.512;13.460;2023-10-08T06:31:03;7.80;;;1.95;;
50549;SDS011;36505;52.512;13.460;2023-10-08T06:33:32;9.38;;;3.05;;
50549;SDS011;36505;52.512;13.460;2023-10-08T06:36:02;16.85;;;5.65;;
50549;SDS011;36505;52.512;13.460;2023-10-08T06:38:38;5.60;;;2.53;;
50549;SDS011;36505;52.512;13.460;2023-10-08T06:41:05;8.85;;;2.47;;
50549;SDS011;36505;52.512;13.460;2023-10-08T06:43:49;9.93;;;2.30;;
50549;SDS011;36505;52.512;13.460;2023-10-08T06:46:16;5.72;;;2.08;;
50549;SDS011;36505;52.512;13.460;2023-10-08T06:48:44;6.28;;;2.17;;
50549;SDS011;36505;52.512;13.460;2023-10-08T06:51:11;4.20;;;1.70;;
50549;SDS011;36505;52.512;13.460;2023-10-08T06:53:43;8.15;;;2.80;;
50549;SDS011;36505;52.512;13.460;2023-10-08T06:56:13;5.38;;;1.58;;
50549;SDS011;36505;52.512;13.460;2023-10-08T06:58:40;8.70;;;1.70;;
50549;SDS011;36505;52.512;13.460;2023-10-08T07:01:13;5.88;;;1.70;;
50549;SDS011;36505;52.512;13.460;2023-10-08T07:03:56;10.00;;;2.38;;
50549;SDS011;36505;52.512;13.460;2023-10-08T07:06:28;4.07;;;2.03;;
50549;SDS011;36505;52.512;13.460;2023-10-08T07:09:00;4.63;;;2.13;;
50549;SDS011;36505;52.512;13.460;2023-10-08T07:11:30;7.22;;;2.05;;
50549;SDS011;36505;52.512;13.460;2023-10-08T07:14:00;5.47;;;1.55;;
50549;SDS011;36505;52.512;13.460;2023-10-08T07:16:29;9.40;;;1.73;;
50549;SDS011;36505;52.512;13.460;2023-10-08T07:18:55;5.47;;;1.48;;
50549;SDS011;36505;52.512;13.460;2023-10-08T07:21:27;8.00;;;1.45;;
50549;SDS011;36505;52.512;13.460;2023-10-08T07:24:04;4.30;;;1.40;;
50549;SDS011;36505;52.512;13.460;2023-10-08T07:26:35;5.57;;;1.50;;
50549;SDS011;36505;52.512;13.460;2023-10-08T07:29:05;7.45;;;1.40;;
50549;SDS011;36505;52.512;13.460;2023-10-08T07:31:34;6.65;;;1.42;;
50549;SDS011;36505;52.512;13.460;2023-10-08T07:34:02;4.78;;;1.30;;
50549;SDS011;36505;52.512;13.460;2023-10-08T07:36:54;3.88;;;1.45;;
50549;SDS011;36505;52.512;13.460;2023-10-08T07:39:20;4.45;;;1.58;;
50549;SDS011;36505;52.512;13.460;2023-10-08T07:41:53;6.03;;;1.70;;
50549;SDS011;36505;52.512;13.460;2023-10-08T07:44:20;4.05;;;1.75;;
50549;SDS011;36505;52.512;13.460;2023-10-08T07:46:48;4.38;;;1.20;;
50549;SDS011;36505;52.512;13.460;2023-10-08T07:49:17;5.15;;;2.10;;
50549;SDS011;36505;52.512;13.460;2023-10-08T07:51:43;4.38;;;1.40;;
50549;SDS011;36505;52.512;13.460;2023-10-08T07:54:21;5.43;;;1.77;;
50549;SDS011;36505;52.512;13.460;2023-10-08T07:56:52;5.07;;;2.03;;
50549;SDS011;36505;52.512;13.460;2023-10-08T07:59:25;3.42;;;1.45;;
50549;SDS011;36505;52.512;13.460;2023-10-08T08:01:50;2.25;;;1.08;;
50549;SDS011;36505;52.512;13.460;2023-10-08T08:04:18;4.97;;;1.40;;
50549;SDS011;36505;52.512;13.460;2023-10-08T08:06:50;2.72;;;1.10;;
50549;SDS011;36505;52.512;13.460;2023-10-08T08:09:17;5.75;;;1.10;;
50549;SDS011;36505;52.512;13.460;2023-10-08T08:11:44;3.28;;;1.20;;
50549;SDS011;36505;52.512;13.460;2023-10-08T08:14:12;3.92;;;1.30;;
50549;SDS011;36505;52.512;13.460;2023-10-08T08:16:49;1.80;;;0.90;;
50549;SDS011;36505;52.512;13.460;2023-10-08T08:19:15;5.22;;;1.10;;
50549;SDS011;36505;52.512;13.460;2023-10-08T08:21:42;2.25;;;1.10;;
50549;SDS011;36505;52.512;13.460;2023-10-08T08:24:12;2.92;;;1.20;;
50549;SDS011;36505;52.512;13.460;2023-10-08T08:26:38;2.05;;;1.23;;
50549;SDS011;36505;52.512;13.460;2023-10-08T08:29:05;2.63;;;1.13;;
50549;SDS011;36505;52.512;13.460;2023-10-08T08:31:34;3.00;;;1.27;;
50549;SDS011;36505;52.512;13.460;2023-10-08T08:34:01;1.52;;;0.80;;
50549;SDS011;36505;52.512;13.460;2023-10-08T08:36:39;2.60;;;0.90;;
50549;SDS011;36505;52.512;13.460;2023-10-08T08:41:36;6.53;;;1.00;;
50549;SDS011;36505;52.512;13.460;2023-10-08T08:44:02;4.28;;;0.95;;
50549;SDS011;36505;52.512;13.460;2023-10-08T08:49:02;1.65;;;0.73;;
50549;SDS011;36505;52.512;13.460;2023-10-08T08:51:32;2.03;;;0.97;;
50549;SDS011;36505;52.512;13.460;2023-10-08T08:54:00;2.55;;;0.80;;
50549;SDS011;36505;52.512;13.460;2023-10-08T08:56:31;5.40;;;0.98;;
50549;SDS011;36505;52.512;13.460;2023-10-08T08:58:59;2.67;;;0.80;;
50549;SDS011;36505;52.512;13.460;2023-10-08T09:01:25;1.20;;;0.70;;
50549;SDS011;36505;52.512;13.460;2023-10-08T09:03:51;3.60;;;0.88;;
50549;SDS011;36505;52.512;13.460;2023-10-08T09:06:26;3.47;;;0.80;;
50549;SDS011;36505;52.512;13.460;2023-10-08T09:08:52;3.10;;;0.93;;
50549;SDS011;36505;52.512;13.460;2023-10-08T09:11:20;2.38;;;0.70;;
50549;SDS011;36505;52.512;13.460;2023-10-08T09:13:46;2.75;;;0.85;;
50549;SDS011;36505;52.512;13.460;2023-10-08T09:16:15;1.13;;;0.68;;
50549;SDS011;36505;52.512;13.460;2023-10-08T09:18:42;3.88;;;0.88;;
50549;SDS011;36505;52.512;13.460;2023-10-08T09:21:11;2.70;;;0.77;;
50549;SDS011;36505;52.512;13.460;2023-10-08T09:23:40;4.25;;;0.93;;
50549;SDS011;36505;52.512;13.460;2023-10-08T09:26:12;2.25;;;0.93;;
50549;SDS011;36505;52.512;13.460;2023-10-08T09:28:47;2.00;;;0.45;;
50549;SDS011;36505;52.512;13.460;2023-10-08T09:31:16;1.95;;;0.65;;
50549;SDS011;36505;52.512;13.460;2023-10-08T09:33:43;0.93;;;0.60;;
50549;SDS011;36505;52.512;13.460;2023-10-08T09:36:18;1.23;;;0.60;;
50549;SDS011;36505;52.512;13.460;2023-10-08T09:38:45;1.08;;;0.60;;
50549;SDS011;36505;52.512;13.460;2023-10-08T09:41:13;2.22;;;1.00;;
50549;SDS011;36505;52.512;13.460;2023-10-08T09:43:39;2.42;;;0.85;;
50549;SDS011;36505;52.512;13.460;2023-10-08T09:46:15;1.75;;;0.47;;
50549;SDS011;36505;52.512;13.460;2023-10-08T09:48:47;2.67;;;0.80;;
50549;SDS011;36505;52.512;13.460;2023-10-08T09:51:16;1.92;;;1.25;;
50549;SDS011;36505;52.512;13.460;2023-10-08T09:53:52;1.73;;;0.90;;
50549;SDS011;36505;52.512;13.460;2023-10-08T09:56:29;1.67;;;0.98;;
50549;SDS011;36505;52.512;13.460;2023-10-08T09:58:56;1.23;;;0.73;;
50549;SDS011;36505;52.512;13.460;2023-10-08T10:01:24;1.80;;;0.70;;
50549;SDS011;36505;52.512;13.460;2023-10-08T10:03:51;2.22;;;1.42;;
50549;SDS011;36505;52.512;13.460;2023-10-08T10:06:17;2.00;;;0.77;;
50549;SDS011;36505;52.512;13.460;2023-10-08T10:08:44;2.00;;;1.30;;
50549;SDS011;36505;52.512;13.460;2023-10-08T10:11:10;1.50;;;0.70;;
50549;SDS011;36505;52.512;13.460;2023-10-08T10:13:41;1.58;;;0.68;;
50549;SDS011;36505;52.512;13.460;2023-10-08T10:16:17;2.60;;;0.73;;
50549;SDS011;36505;52.512;13.460;2023-10-08T10:18:44;1.77;;;0.63;;
50549;SDS011;36505;52.512;13.460;2023-10-08T10:23:40;2.15;;;0.77;;
50549;SDS011;36505;52.512;13.460;2023-10-08T10:31:46;1.52;;;0.93;;
50549;SDS011;36505;52.512;13.460;2023-10-08T10:34:14;1.95;;;1.05;;
50549;SDS011;36505;52.512;13.460;2023-10-08T10:36:44;2.90;;;1.20;;
50549;SDS011;36505;52.512;13.460;2023-10-08T10:39:13;1.10;;;0.60;;
50549;SDS011;36505;52.512;13.460;2023-10-08T10:41:46;2.10;;;1.40;;
50549;SDS011;36505;52.512;13.460;2023-10-08T10:44:13;1.70;;;1.08;;
50549;SDS011;36505;52.512;13.460;2023-10-08T10:46:41;1.50;;;0.63;;
50549;SDS011;36505;52.512;13.460;2023-10-08T10:49:08;3.60;;;1.40;;
50549;SDS011;36505;52.512;13.460;2023-10-08T10:51:56;1.20;;;0.63;;
50549;SDS011;36505;52.512;13.460;2023-10-08T10:54:24;1.58;;;1.10;;
50549;SDS011;36505;52.512;13.460;2023-10-08T10:56:51;3.28;;;0.77;;
50549;SDS011;36505;52.512;13.460;2023-10-08T10:59:30;2.13;;;1.08;;
50549;SDS011;36505;52.512;13.460;2023-10-08T11:02:04;5.00;;;3.25;;
50549;SDS011;36505;52.512;13.460;2023-10-08T11:04:35;7.40;;;5.07;;
50549;SDS011;36505;52.512;13.460;2023-10-08T11:07:14;2.45;;;0.95;;
50549;SDS011;36505;52.512;13.460;2023-10-08T11:09:43;3.13;;;1.08;;
50549;SDS011;36505;52.512;13.460;2023-10-08T11:12:10;4.57;;;2.42;;
50549;SDS011;36505;52.512;13.460;2023-10-08T11:14:38;7.05;;;3.97;;
50549;SDS011;36505;52.512;13.460;2023-10-08T11:17:15;4.25;;;2.50;;
50549;SDS011;36505;52.512;13.460;2023-10-08T11:19:42;3.72;;;1.50;;
50549;SDS011;36505;52.512;13.460;2023-10-08T11:22:11;1.85;;;1.00;;
50549;SDS011;36505;52.512;13.460;2023-10-08T11:24:41;4.40;;;2.28;;
50549;SDS011;36505;52.512;13.460;2023-10-08T11:27:09;2.85;;;1.20;;
50549;SDS011;36505;52.512;13.460;2023-10-08T11:29:42;2.38;;;1.15;;
50549;SDS011;36505;52.512;13.460;2023-10-08T11:32:22;2.63;;;0.90;;
50549;SDS011;36505;52.512;13.460;2023-10-08T11:34:59;1.98;;;1.08;;
50549;SDS011;36505;52.512;13.460;2023-10-08T11:37:26;4.40;;;1.63;;
50549;SDS011;36505;52.512;13.460;2023-10-08T11:39:55;2.20;;;1.20;;
50549;SDS011;36505;52.512;13.460;2023-10-08T11:42:23;2.90;;;1.20;;
50549;SDS011;36505;52.512;13.460;2023-10-08T11:45:10;2.95;;;1.40;;
50549;SDS011;36505;52.512;13.460;2023-10-08T11:47:52;4.90;;;1.80;;
50549;SDS011;36505;52.512;13.460;2023-10-08T11:50:26;4.53;;;1.15;;
50549;SDS011;36505;52.512;13.460;2023-10-08T11:52:59;4.85;;;1.30;;
50549;SDS011;36505;52.512;13.460;2023-10-08T11:55:35;11.52;;;6.60;;
50549;SDS011;36505;52.512;13.460;2023-10-08T11:58:05;4.38;;;1.55;;
50549;SDS011;36505;52.512;13.460;2023-10-08T12:00:42;2.60;;;0.85;;
50549;SDS011;36505;52.512;13.460;2023-10-08T12:03:17;5.13;;;1.63;;
50549;SDS011;36505;52.512;13.460;2023-10-08T12:05:43;3.00;;;1.95;;
50549;SDS011;36505;52.512;13.460;2023-10-08T12:08:12;4.07;;;2.10;;
50549;SDS011;36505;52.512;13.460;2023-10-08T12:10:41;3.55;;;2.25;;
50549;SDS011;36505;52.512;13.460;2023-10-08T12:13:08;2.97;;;1.15;;
50549;SDS011;36505;52.512;13.460;2023-10-08T12:15:35;1.80;;;0.77;;
50549;SDS011;36505;52.512;13.460;2023-10-08T12:18:04;2.50;;;1.33;;
50549;SDS011;36505;52.512;13.460;2023-10-08T12:20:48;6.15;;;1.10;;
50549;SDS011;36505;52.512;13.460;2023-10-08T12:23:14;4.43;;;1.40;;
50549;SDS011;36505;52.512;13.460;2023-10-08T12:25:52;6.38;;;2.70;;
50549;SDS011;36505;52.512;13.460;2023-10-08T12:28:18;3.22;;;1.63;;
50549;SDS011;36505;52.512;13.460;2023-10-08T12:30:44;3.53;;;2.08;;
50549;SDS011;36505;52.512;13.460;2023-10-08T12:33:10;2.55;;;1.40;;
50549;SDS011;36505;52.512;13.460;2023-10-08T12:35:40;2.83;;;1.17;;
50549;SDS011;36505;52.512;13.460;2023-10-08T12:38:06;1.65;;;0.90;;
50549;SDS011;36505;52.512;13.460;2023-10-08T12:40:31;4.85;;;2.42;;
50549;SDS011;36505;52.512;13.460;2023-10-08T12:43:17;2.08;;;1.10;;
50549;SDS011;36505;52.512;13.460;2023-10-08T12:45:44;2.75;;;0.77;;
50549;SDS011;36505;52.512;13.460;2023-10-08T12:48:16;3.38;;;1.17;;
50549;SDS011;36505;52.512;13.460;2023-10-08T12:50:43;4.53;;;1.33;;
50549;SDS011;36505;52.512;13.460;2023-10-08T12:53:09;4.22;;;1.90;;
50549;SDS011;36505;52.512;13.460;2023-10-08T12:55:36;2.47;;;1.30;;
50549;SDS011;36505;52.512;13.460;2023-10-08T12:58:04;2.80;;;0.90;;
50549;SDS011;36505;52.512;13.460;2023-10-08T13:00:34;4.40;;;1.67;;
50549;SDS011;36505;52.512;13.460;2023-10-08T13:03:03;8.60;;;3.38;;
50549;SDS011;36505;52.512;13.460;2023-10-08T13:05:30;2.85;;;1.15;;
50549;SDS011;36505;52.512;13.460;2023-10-08T13:07:58;2.75;;;1.58;;
50549;SDS011;36505;52.512;13.460;2023-10-08T13:10:34;6.55;;;3.30;;
50549;SDS011;36505;52.512;13.460;2023-10-08T13:12:59;3.25;;;1.13;;
50549;SDS011;36505;52.512;13.460;2023-10-08T13:15:24;2.20;;;0.90;;
50549;SDS011;36505;52.512;13.460;2023-10-08T13:17:51;4.18;;;1.98;;
50549;SDS011;36505;52.512;13.460;2023-10-08T13:20:17;2.60;;;1.13;;
50549;SDS011;36505;52.512;13.460;2023-10-08T13:22:43;9.60;;;2.80;;
50549;SDS011;36505;52.512;13.460;2023-10-08T13:25:09;5.22;;;2.35;;
50549;SDS011;36505;52.512;13.460;2023-10-08T13:27:36;6.05;;;3.28;;
50549;SDS011;36505;52.512;13.460;2023-10-08T13:30:05;3.50;;;1.90;;
50549;SDS011;36505;52.512;13.460;2023-10-08T13:32:34;8.05;;;4.57;;
50549;SDS011;36505;52.512;13.460;2023-10-08T13:35:02;4.25;;;1.10;;
50549;SDS011;36505;52.512;13.460;2023-10-08T13:37:29;7.65;;;2.50;;
50549;SDS011;36505;52.512;13.460;2023-10-08T13:39:56;2.20;;;1.10;;
50549;SDS011;36505;52.512;13.460;2023-10-08T13:42:21;4.75;;;2.30;;
50549;SDS011;36505;52.512;13.460;2023-10-08T13:44:47;5.00;;;1.40;;
50549;SDS011;36505;52.512;13.460;2023-10-08T13:47:13;4.13;;;1.02;;
50549;SDS011;36505;52.512;13.460;2023-10-08T13:49:40;5.70;;;3.50;;
50549;SDS011;36505;52.512;13.460;2023-10-08T13:52:07;1.98;;;1.10;;
50549;SDS011;36505;52.512;13.460;2023-10-08T13:54:33;5.68;;;1.70;;
50549;SDS011;36505;52.512;13.460;2023-10-08T13:57:04;3.70;;;1.30;;
50549;SDS011;36505;52.512;13.460;2023-10-08T13:59:33;2.90;;;1.40;;
50549;SDS011;36505;52.512;13.460;2023-10-08T14:01:59;3.53;;;1.30;;
50549;SDS011;36505;52.512;13.460;2023-10-08T14:04:27;7.43;;;1.45;;
50549;SDS011;36505;52.512;13.460;2023-10-08T14:06:55;4.72;;;1.25;;
50549;SDS011;36505;52.512;13.460;2023-10-08T14:09:23;2.97;;;1.27;;
50549;SDS011;36505;52.512;13.460;2023-10-08T14:12:01;2.70;;;1.70;;
50549;SDS011;36505;52.512;13.460;2023-10-08T14:14:27;5.55;;;2.00;;
50549;SDS011;36505;52.512;13.460;2023-10-08T14:16:58;4.95;;;2.83;;
50549;SDS011;36505;52.512;13.460;2023-10-08T14:19:36;3.25;;;1.55;;
50549;SDS011;36505;52.512;13.460;2023-10-08T14:22:04;4.88;;;2.67;;
50549;SDS011;36505;52.512;13.460;2023-10-08T14:24:33;3.58;;;1.17;;
50549;SDS011;36505;52.512;13.460;2023-10-08T14:27:03;2.58;;;1.00;;
50549;SDS011;36505;52.512;13.460;2023-10-08T14:29:34;5.88;;;1.48;;
50549;SDS011;36505;52.512;13.460;2023-10-08T14:32:09;2.78;;;1.08;;
50549;SDS011;36505;52.512;13.460;2023-10-08T14:34:38;3.35;;;1.67;;
50549;SDS011;36505;52.512;13.460;2023-10-08T14:37:06;4.10;;;1.52;;
50549;SDS011;36505;52.512;13.460;2023-10-08T14:39:50;5.93;;;3.45;;
50549;SDS011;36505;52.512;13.460;2023-10-08T14:42:34;2.22;;;1.15;;
50549;SDS011;36505;52.512;13.460;2023-10-08T14:45:18;3.40;;;1.08;;
50549;SDS011;36505;52.512;13.460;2023-10-08T14:47:44;2.03;;;0.95;;
50549;SDS011;36505;52.512;13.460;2023-10-08T14:50:10;4.93;;;1.08;;
50549;SDS011;36505;52.512;13.460;2023-10-08T14:52:42;3.20;;;1.20;;
50549;SDS011;36505;52.512;13.460;2023-10-08T14:55:08;3.38;;;0.82;;
50549;SDS011;36505;52.512;13.460;2023-10-08T14:57:33;8.98;;;5.15;;
50549;SDS011;36505;52.512;13.460;2023-10-08T14:59:59;11.30;;;5.55;;
50549;SDS011;36505;52.512;13.460;2023-10-08T15:02:24;3.75;;;2.10;;
50549;SDS011;36505;52.512;13.460;2023-10-08T15:04:54;4.18;;;2.47;;
50549;SDS011;36505;52.512;13.460;2023-10-08T15:07:21;6.57;;;1.70;;
50549;SDS011;36505;52.512;13.460;2023-10-08T15:09:47;4.10;;;1.08;;
50549;SDS011;36505;52.512;13.460;2023-10-08T15:12:17;8.13;;;4.20;;
50549;SDS011;36505;52.512;13.460;2023-10-08T15:14:43;9.90;;;5.32;;
50549;SDS011;36505;52.512;13.460;2023-10-08T15:17:08;6.20;;;2.97;;
50549;SDS011;36505;52.512;13.460;2023-10-08T15:19:34;14.57;;;7.72;;
50549;SDS011;36505;52.512;13.460;2023-10-08T15:22:00;5.90;;;1.77;;
50549;SDS011;36505;52.512;13.460;2023-10-08T15:24:27;2.72;;;1.73;;
50549;SDS011;36505;52.512;13.460;2023-10-08T15:26:53;6.80;;;3.83;;
50549;SDS011;36505;52.512;13.460;2023-10-08T15:29:22;4.82;;;1.50;;
50549;SDS011;36505;52.512;13.460;2023-10-08T15:31:52;11.90;;;3.20;;
50549;SDS011;36505;52.512;13.460;2023-10-08T15:34:17;1.98;;;0.98;;